createdAt,value
2019-05-05T00:01:14.661Z,73.15
2019-05-05T00:03:55.042Z,74.02
2019-05-05T00:06:24.972Z,71.70
2019-05-05T00:08:54.724Z,72.48
2019-05-05T00:11:35.148Z,72.36
2019-05-05T00:14:24.631Z,71.00
2019-05-05T00:16:57.791Z,70.87
2019-05-05T00:19:32.499Z,70.06
2019-05-05T00:21:56.508Z,69.21
2019-05-05T00:24:25.110Z,69.59
2019-05-05T00:26:55.258Z,67.97
2019-05-05T00:29:25.355Z,68.13
2019-05-05T00:31:54.726Z,68.70
2019-05-05T00:34:24.477Z,68.21
2019-05-05T00:36:55.057Z,68.61
2019-05-05T00:39:25.442Z,67.10
2019-05-05T00:41:55.485Z,69.00
2019-05-05T00:44:24.734Z,68.53
2019-05-05T00:46:57.621Z,69.61
2019-05-05T00:49:27.972Z,68.73
2019-05-05T00:51:56.502Z,68.27
2019-05-05T00:54:25.011Z,68.52
2019-05-05T00:56:54.475Z,67.75
2019-05-05T00:59:25.287Z,68.34
2019-05-05T01:02:11.812Z,67.94
2019-05-05T01:04:41.972Z,68.21
2019-05-05T01:07:10.484Z,68.82
2019-05-05T01:09:39.925Z,68.68
2019-05-05T01:12:08.699Z,68.65
2019-05-05T01:14:37.201Z,68.58
2019-05-05T01:17:05.870Z,68.60
2019-05-05T01:19:34.948Z,68.82
2019-05-05T01:22:04.967Z,69.74
2019-05-05T01:24:34.204Z,70.10
2019-05-05T01:27:04.260Z,69.97
2019-05-05T01:29:34.636Z,70.96
2019-05-05T01:32:05.105Z,71.90
2019-05-05T01:34:40.827Z,72.49
2019-05-05T01:37:27.579Z,72.40
2019-05-05T01:40:16.985Z,73.66
2019-05-05T01:42:45.597Z,73.80
2019-05-05T01:45:14.946Z,74.48
2019-05-05T01:47:45.328Z,74.20
2019-05-05T01:50:20.633Z,72.33
2019-05-05T01:52:45.090Z,72.43
2019-05-05T01:55:14.671Z,72.58
2019-05-05T01:57:45.028Z,73.38
2019-05-05T02:00:14.796Z,73.04
2019-05-05T02:02:44.833Z,72.88
2019-05-05T02:05:14.772Z,73.39
2019-05-05T02:07:44.817Z,73.13
2019-05-05T02:10:15.337Z,72.60
2019-05-05T02:12:44.741Z,71.85
2019-05-05T02:15:14.939Z,72.58
2019-05-05T02:17:44.590Z,73.41
2019-05-05T02:20:34.266Z,73.21
2019-05-05T02:23:04.646Z,73.18
2019-05-05T02:25:34.596Z,73.22
2019-05-05T02:28:04.446Z,73.51
2019-05-05T02:30:35.922Z,73.52
2019-05-05T02:33:06.527Z,73.48
2019-05-05T02:35:35.370Z,74.04
2019-05-05T02:38:06.564Z,72.88
2019-05-05T02:40:35.169Z,72.65
2019-05-05T02:43:05.507Z,73.13
2019-05-05T02:45:40.364Z,72.72
2019-05-05T02:48:10.859Z,71.33
2019-05-05T02:51:02.201Z,71.05
2019-05-05T02:53:33.846Z,71.28
2019-05-05T02:56:05.383Z,71.93
2019-05-05T02:58:36.917Z,71.65
2019-05-05T03:01:24.406Z,71.21
2019-05-05T03:03:54.362Z,71.51
2019-05-05T03:06:23.780Z,71.57
2019-05-05T03:08:54.306Z,71.58
2019-05-05T03:11:23.778Z,70.54
2019-05-05T03:13:55.465Z,70.80
2019-05-05T03:16:27.005Z,70.11
2019-05-05T03:18:56.176Z,69.86
2019-05-05T03:21:25.410Z,69.85
2019-05-05T03:23:54.748Z,70.33
2019-05-05T03:26:23.837Z,71.14
2019-05-05T03:28:59.969Z,71.33
2019-05-05T03:31:28.725Z,71.54
2019-05-05T03:33:57.360Z,71.86
2019-05-05T03:36:27.195Z,72.01
2019-05-05T03:38:56.329Z,72.68
2019-05-05T03:41:40.116Z,72.95
2019-05-05T03:44:14.169Z,73.32
2019-05-05T03:46:43.843Z,73.86
2019-05-05T03:49:13.956Z,74.94
2019-05-05T03:51:43.898Z,75.51
2019-05-05T03:54:14.659Z,76.49
2019-05-05T03:56:44.161Z,77.12
2019-05-05T03:59:14.072Z,77.84
2019-05-05T04:01:51.912Z,78.21
2019-05-05T04:04:33.878Z,78.80
2019-05-05T04:07:04.546Z,79.00
2019-05-05T04:09:34.540Z,79.70
2019-05-05T04:12:04.411Z,79.95
2019-05-05T04:14:34.786Z,80.19
2019-05-05T04:17:08.645Z,80.02
2019-05-05T04:19:50.615Z,80.24
2019-05-05T04:22:19.167Z,81.32
2019-05-05T04:24:47.633Z,81.93
2019-05-05T04:27:16.447Z,81.70
2019-05-05T04:29:44.918Z,81.76
2019-05-05T04:32:14.239Z,82.37
2019-05-05T04:34:43.853Z,82.19
2019-05-05T04:37:14.646Z,82.22
2019-05-05T04:39:44.370Z,82.33
2019-05-05T04:42:13.990Z,81.33
2019-05-05T04:44:44.666Z,81.65
2019-05-05T04:47:30.251Z,81.50
2019-05-05T04:50:00.405Z,81.80
2019-05-05T04:52:30.536Z,81.84
2019-05-05T04:54:59.067Z,81.47
2019-05-05T04:57:27.784Z,81.44
2019-05-05T04:59:56.290Z,81.12
2019-05-05T05:02:29.085Z,81.01
2019-05-05T05:04:59.222Z,81.32
2019-05-05T05:07:27.747Z,81.40
2019-05-05T05:09:56.274Z,81.03
2019-05-05T05:12:24.853Z,81.43
2019-05-05T05:14:54.674Z,81.23
2019-05-05T05:17:25.096Z,81.33
2019-05-05T05:19:54.216Z,81.59
2019-05-05T05:22:24.320Z,82.02
2019-05-05T05:24:54.096Z,82.13
2019-05-05T05:27:24.477Z,82.62
2019-05-05T05:29:54.407Z,83.24
2019-05-05T05:32:24.701Z,83.49
2019-05-05T05:34:54.257Z,83.85
2019-05-05T05:37:25.771Z,84.21
2019-05-05T05:40:08.212Z,84.54
2019-05-05T05:42:36.835Z,84.78
2019-05-05T05:45:26.548Z,85.53
2019-05-05T05:48:05.146Z,85.65
2019-05-05T05:50:38.612Z,85.76
2019-05-05T05:53:07.111Z,86.39
2019-05-05T05:55:35.634Z,86.82
2019-05-05T05:58:04.878Z,87.16
2019-05-05T06:00:34.365Z,87.23
2019-05-05T06:03:03.950Z,87.53
2019-05-05T06:05:34.285Z,87.30
2019-05-05T06:08:04.792Z,87.30
2019-05-05T06:10:33.927Z,87.24
2019-05-05T06:13:04.083Z,87.09
2019-05-05T06:15:33.719Z,86.95
2019-05-05T06:18:04.461Z,86.82
2019-05-05T06:20:34.437Z,86.71
2019-05-05T06:23:04.095Z,86.85
2019-05-05T06:25:34.171Z,87.15
2019-05-05T06:28:04.232Z,87.23
2019-05-05T06:30:33.706Z,87.11
2019-05-05T06:33:04.733Z,87.19
2019-05-05T06:35:33.806Z,86.64
2019-05-05T06:38:04.497Z,86.21
2019-05-05T06:40:49.058Z,86.11
2019-05-05T06:43:25.510Z,86.23
2019-05-05T06:45:58.766Z,85.59
2019-05-05T06:48:27.269Z,85.00
2019-05-05T06:50:55.833Z,85.13
2019-05-05T06:53:24.360Z,84.92
2019-05-05T06:55:54.262Z,84.71
2019-05-05T06:58:24.138Z,84.04
2019-05-05T07:00:54.271Z,84.53
2019-05-05T07:03:24.342Z,84.74
2019-05-05T07:05:54.020Z,84.50
2019-05-05T07:08:24.354Z,84.41
2019-05-05T07:10:54.770Z,84.06
2019-05-05T07:13:24.466Z,84.25
2019-05-05T07:15:54.233Z,83.74
2019-05-05T07:18:24.693Z,83.51
2019-05-05T07:20:54.471Z,83.79
2019-05-05T07:23:24.591Z,84.08
2019-05-05T07:25:54.927Z,84.50
2019-05-05T07:28:23.603Z,84.29
2019-05-05T07:30:52.253Z,84.14
2019-05-05T07:33:20.777Z,83.67
2019-05-05T07:35:56.749Z,83.31
2019-05-05T07:38:21.147Z,83.42
2019-05-05T07:40:49.667Z,83.30
2019-05-05T07:43:18.193Z,83.47
2019-05-05T07:45:46.782Z,82.94
2019-05-05T07:48:15.376Z,82.98
2019-05-05T07:50:58.680Z,83.18
2019-05-05T07:53:17.670Z,82.95
2019-05-05T07:55:44.697Z,82.83
2019-05-05T07:58:14.025Z,83.13
2019-05-05T08:00:43.620Z,82.74
2019-05-05T08:03:14.193Z,82.33
2019-05-05T08:05:44.213Z,82.62
2019-05-05T08:08:13.927Z,82.02
2019-05-05T08:10:43.784Z,81.83
2019-05-05T08:13:14.108Z,81.74
2019-05-05T08:15:56.251Z,81.64
2019-05-05T08:18:19.160Z,82.00
2019-05-05T08:20:49.315Z,81.95
2019-05-05T08:23:31.850Z,81.30
2019-05-05T08:26:04.484Z,81.85
2019-05-05T08:28:34.460Z,80.88
2019-05-05T08:31:10.396Z,81.57
2019-05-05T08:33:38.993Z,82.39
2019-05-05T08:36:07.569Z,82.81
2019-05-05T08:38:36.117Z,83.08
2019-05-05T08:41:04.819Z,82.93
2019-05-05T08:43:34.709Z,82.43
2019-05-05T08:46:05.017Z,83.23
2019-05-05T08:48:34.204Z,82.81
2019-05-05T08:51:04.806Z,83.34
2019-05-05T08:53:42.521Z,82.99
2019-05-05T08:56:04.163Z,83.00
2019-05-05T08:58:34.449Z,83.14
2019-05-05T09:01:04.348Z,83.44
2019-05-05T09:03:33.709Z,83.00
2019-05-05T09:06:04.534Z,82.28
2019-05-05T09:08:34.693Z,82.82
2019-05-05T09:11:04.746Z,83.04
2019-05-05T09:13:34.018Z,83.35
2019-05-05T09:16:03.766Z,83.78
2019-05-05T09:18:33.960Z,83.82
2019-05-05T09:21:04.417Z,84.26
2019-05-05T09:23:34.780Z,83.92
2019-05-05T09:26:05.026Z,84.02
2019-05-05T09:28:35.255Z,83.59
2019-05-05T09:31:04.227Z,83.60
2019-05-05T09:33:33.894Z,83.76
2019-05-05T09:36:04.591Z,82.85
2019-05-05T09:38:34.788Z,82.57
2019-05-05T09:41:04.175Z,83.13
2019-05-05T09:43:34.488Z,83.57
2019-05-05T09:46:04.012Z,82.97
2019-05-05T09:48:33.718Z,82.63
2019-05-05T09:51:06.247Z,82.40
2019-05-05T09:53:34.930Z,81.60
2019-05-05T09:56:05.047Z,82.19
2019-05-05T09:58:34.778Z,82.51
2019-05-05T10:01:04.150Z,82.68
2019-05-05T10:03:36.546Z,82.47
2019-05-05T10:06:05.325Z,81.34
2019-05-05T10:08:36.263Z,81.45
2019-05-05T10:11:09.366Z,81.78
2019-05-05T10:13:40.954Z,81.23
2019-05-05T10:19:08.697Z,81.12
2019-05-05T10:21:41.707Z,81.37
2019-05-05T10:24:39.559Z,79.88
2019-05-05T10:30:10.548Z,79.74
2019-05-05T10:32:50.392Z,78.62
2019-05-05T10:35:41.229Z,78.21
2019-05-05T10:38:10.778Z,78.88
2019-05-05T10:40:44.627Z,76.57
2019-05-05T10:43:25.613Z,76.85
2019-05-05T10:48:44.590Z,77.94
2019-05-05T10:51:34.601Z,75.86
2019-05-05T10:54:10.602Z,75.78
2019-05-05T10:56:45.360Z,75.73
2019-05-05T10:59:23.996Z,76.05
2019-05-05T11:02:08.262Z,75.25
2019-05-05T11:04:37.872Z,73.60
2019-05-05T11:07:09.445Z,74.86
2019-05-05T11:09:41.867Z,74.62
2019-05-05T11:12:14.433Z,74.54
2019-05-05T11:14:45.852Z,73.18
2019-05-05T11:17:26.073Z,74.11
2019-05-05T11:20:09.434Z,74.08
2019-05-05T11:22:58.376Z,73.42
2019-05-05T11:25:28.429Z,71.62
2019-05-05T11:27:57.865Z,70.94
2019-05-05T11:30:35.375Z,72.95
2019-05-05T11:36:13.731Z,71.24
2019-05-05T11:38:44.580Z,70.55
2019-05-05T11:41:14.418Z,68.38
2019-05-05T11:43:44.347Z,68.73
2019-05-05T11:46:14.112Z,70.02
2019-05-05T11:48:43.874Z,71.14
2019-05-05T11:51:14.876Z,69.72
2019-05-05T11:53:44.639Z,67.60
2019-05-05T11:56:14.486Z,68.35
2019-05-05T11:58:44.645Z,66.48
2019-05-05T12:01:13.956Z,64.84
2019-05-05T12:03:44.303Z,65.04
2019-05-05T12:06:14.706Z,64.07
2019-05-05T12:08:45.776Z,64.51
2019-05-05T12:11:15.097Z,61.50
2019-05-05T12:13:44.039Z,62.98
2019-05-05T12:16:14.272Z,61.39
2019-05-05T12:18:44.901Z,62.86
2019-05-05T12:21:14.020Z,62.08
2019-05-05T12:23:44.429Z,60.77
2019-05-05T12:26:24.339Z,59.18
2019-05-05T12:28:54.669Z,58.60
2019-05-05T12:31:27.918Z,59.01
2019-05-05T12:33:56.572Z,58.95
2019-05-05T12:36:25.135Z,57.34
2019-05-05T12:38:54.578Z,57.63
2019-05-05T12:41:23.954Z,58.39
2019-05-05T12:43:54.874Z,57.46
2019-05-05T12:46:36.454Z,56.61
2019-05-05T12:49:06.717Z,57.98
2019-05-05T12:51:35.734Z,58.13
2019-05-05T12:54:04.643Z,57.76
2019-05-05T12:56:34.015Z,57.03
2019-05-05T12:59:04.486Z,57.18
2019-05-05T13:01:37.667Z,59.03
2019-05-05T13:04:06.226Z,58.88
2019-05-05T13:06:34.864Z,59.02
2019-05-05T13:09:04.866Z,59.35
2019-05-05T13:11:34.346Z,59.12
2019-05-05T13:14:03.682Z,59.79
2019-05-05T13:16:32.427Z,61.00
2019-05-05T13:19:04.378Z,60.55
2019-05-05T13:21:44.176Z,59.01
2019-05-05T13:24:26.481Z,59.19
2019-05-05T13:26:56.787Z,60.24
2019-05-05T13:29:25.296Z,61.18
2019-05-05T13:31:54.415Z,60.53
2019-05-05T13:34:23.104Z,61.16
2019-05-05T13:36:51.638Z,60.06
2019-05-05T13:39:20.145Z,60.26
2019-05-05T13:41:48.681Z,60.00
2019-05-05T13:44:36.779Z,62.55
2019-05-05T13:47:05.147Z,62.77
2019-05-05T13:49:35.366Z,63.27
2019-05-05T13:52:04.915Z,66.45
2019-05-05T13:54:33.669Z,68.49
2019-05-05T13:57:03.857Z,70.37
2019-05-05T13:59:34.338Z,71.09
2019-05-05T14:02:03.017Z,71.69
2019-05-05T14:04:31.679Z,70.59
2019-05-05T14:07:00.198Z,69.65
2019-05-05T14:09:28.697Z,67.73
2019-05-05T14:11:57.267Z,66.48
2019-05-05T14:14:25.747Z,66.55
2019-05-05T14:16:54.243Z,64.82
2019-05-05T14:19:24.710Z,63.78
2019-05-05T14:21:53.862Z,62.88
2019-05-05T14:24:26.605Z,61.25
2019-05-05T14:26:55.112Z,60.88
2019-05-05T14:29:41.398Z,60.72
2019-05-05T14:32:13.390Z,60.84
2019-05-05T14:34:44.156Z,60.87
2019-05-05T14:37:29.209Z,60.56
2019-05-05T14:39:57.864Z,59.78
2019-05-05T14:42:26.401Z,59.07
2019-05-05T14:44:54.960Z,59.00
2019-05-05T14:47:24.470Z,59.04
2019-05-05T14:49:54.024Z,62.25
2019-05-05T14:52:24.577Z,65.51
2019-05-05T14:54:54.444Z,68.16
2019-05-05T14:57:24.848Z,68.37
2019-05-05T14:59:54.046Z,67.21
2019-05-05T15:02:24.260Z,67.75
2019-05-05T15:04:54.654Z,66.00
2019-05-05T15:07:31.207Z,65.28
2019-05-05T15:10:18.928Z,64.28
2019-05-05T15:12:53.742Z,64.30
2019-05-05T15:15:23.517Z,63.65
2019-05-05T15:17:53.702Z,64.06
2019-05-05T15:20:24.315Z,63.82
2019-05-05T15:22:54.107Z,64.66
2019-05-05T15:25:23.472Z,64.80
2019-05-05T15:27:54.070Z,65.50
2019-05-05T15:30:26.563Z,64.78
2019-05-05T15:32:54.106Z,65.17
2019-05-05T15:35:22.837Z,67.66
2019-05-05T15:37:51.402Z,68.52
2019-05-05T15:40:20.127Z,69.71
2019-05-05T15:42:48.679Z,70.67
2019-05-05T15:45:17.414Z,71.37
2019-05-05T15:47:46.012Z,71.41
2019-05-05T15:50:14.925Z,70.88
2019-05-05T15:52:44.099Z,71.57
2019-05-05T15:55:14.197Z,71.42
2019-05-05T15:57:44.252Z,71.37
2019-05-05T16:00:14.185Z,71.22
2019-05-05T16:02:44.216Z,70.99
2019-05-05T16:05:13.724Z,69.38
2019-05-05T16:07:43.973Z,68.31
2019-05-05T16:10:13.714Z,67.52
2019-05-05T16:12:44.781Z,67.13
2019-05-05T16:15:18.918Z,67.41
2019-05-05T16:17:53.349Z,68.56
2019-05-05T16:20:26.380Z,69.18
2019-05-05T16:22:56.599Z,72.45
2019-05-05T16:25:25.078Z,72.83
2019-05-05T16:27:53.591Z,71.82
2019-05-05T16:30:23.542Z,70.00
2019-05-05T16:32:54.961Z,69.00
2019-05-05T16:35:23.747Z,67.74
2019-05-05T16:37:52.301Z,68.00
2019-05-05T16:40:23.327Z,69.51
2019-05-05T16:42:51.282Z,70.40
2019-05-05T16:45:20.122Z,70.41
2019-05-05T16:47:48.693Z,70.58
2019-05-05T16:50:17.317Z,71.80
2019-05-05T16:52:47.449Z,70.28
2019-05-05T16:55:20.092Z,69.31
2019-05-05T16:57:48.562Z,68.08
2019-05-05T17:00:17.219Z,70.27
2019-05-05T17:02:45.716Z,71.02
2019-05-05T17:05:14.548Z,68.81
2019-05-05T17:07:43.110Z,70.40
2019-05-05T17:10:13.860Z,72.25
2019-05-05T17:12:44.200Z,71.87
2019-05-05T17:15:18.736Z,72.25
2019-05-05T17:17:54.817Z,71.59
2019-05-05T17:20:25.119Z,70.52
2019-05-05T17:22:55.307Z,68.52
2019-05-05T17:25:24.618Z,68.33
2019-05-05T17:27:54.626Z,67.85
2019-05-05T17:30:26.860Z,67.52
2019-05-05T17:32:54.423Z,67.45
2019-05-05T17:35:24.012Z,67.94
2019-05-05T17:37:53.897Z,68.03
2019-05-05T17:40:29.793Z,67.67
2019-05-05T17:42:59.941Z,67.55
2019-05-05T17:45:30.126Z,67.65
2019-05-05T17:48:04.430Z,67.98
2019-05-05T17:50:50.346Z,68.18
2019-05-05T17:53:26.024Z,70.37
2019-05-05T17:55:56.169Z,70.97
2019-05-05T17:58:27.536Z,72.06
2019-05-05T18:00:56.597Z,72.76
2019-05-05T18:03:25.097Z,72.79
2019-05-05T18:06:10.105Z,72.63
2019-05-05T18:08:49.167Z,73.62
2019-05-05T18:11:37.358Z,73.86
2019-05-05T18:14:07.608Z,74.18
2019-05-05T18:16:36.086Z,74.92
2019-05-05T18:19:04.651Z,76.62
2019-05-05T18:21:34.761Z,76.57
2019-05-05T18:24:03.491Z,76.96
2019-05-05T18:26:33.940Z,77.57
2019-05-05T18:29:03.813Z,78.36
2019-05-05T18:31:33.678Z,79.68
2019-05-05T18:34:04.007Z,80.27
2019-05-05T18:36:32.686Z,80.91
2019-05-05T18:39:01.580Z,81.44
2019-05-05T18:41:31.751Z,81.19
2019-05-05T18:44:03.710Z,81.22
2019-05-05T18:46:33.868Z,81.79
2019-05-05T18:49:04.259Z,81.62
2019-05-05T18:51:34.609Z,81.28
2019-05-05T18:54:04.205Z,80.65
2019-05-05T18:56:34.584Z,80.99
2019-05-05T18:59:06.480Z,81.08
2019-05-05T19:01:35.015Z,81.25
2019-05-05T19:04:05.329Z,81.22
2019-05-05T19:06:41.000Z,81.32
2019-05-05T19:09:11.202Z,81.59
2019-05-05T19:11:39.795Z,81.67
2019-05-05T19:14:08.372Z,82.12
2019-05-05T19:16:36.953Z,81.90
2019-05-05T19:19:05.644Z,82.04
2019-05-05T19:21:36.059Z,81.50
2019-05-05T19:24:04.846Z,82.54
2019-05-05T19:26:33.810Z,82.52
2019-05-05T19:29:04.979Z,81.49
2019-05-05T19:31:36.299Z,81.08
2019-05-05T19:34:04.123Z,80.41
2019-05-05T19:36:34.320Z,79.28
2019-05-05T19:39:04.148Z,78.81
2019-05-05T19:41:34.810Z,79.21
2019-05-05T19:44:04.730Z,80.33
2019-05-05T19:46:35.166Z,81.92
2019-05-05T19:49:16.585Z,82.90
2019-05-05T19:51:45.877Z,83.26
2019-05-05T19:54:14.536Z,83.47
2019-05-05T19:56:44.796Z,83.19
2019-05-05T19:59:13.791Z,83.00
2019-05-05T20:01:44.917Z,82.58
2019-05-05T20:04:14.635Z,82.55
2019-05-05T20:06:44.173Z,82.79
2019-05-05T20:09:14.162Z,82.77
2019-05-05T20:11:43.815Z,82.66
2019-05-05T20:14:14.836Z,82.49
2019-05-05T20:17:00.552Z,81.77
2019-05-05T20:19:30.818Z,82.55
2019-05-05T20:25:18.103Z,83.55
2019-05-05T20:27:46.525Z,83.49
2019-05-05T20:30:15.206Z,83.59
2019-05-05T20:32:48.190Z,83.62
2019-05-05T20:35:24.102Z,83.62
2019-05-05T20:37:57.101Z,83.64
2019-05-05T20:40:27.240Z,83.05
2019-05-05T20:42:55.798Z,83.22
2019-05-05T20:45:26.017Z,83.49
2019-05-05T20:47:54.575Z,83.75
2019-05-05T20:50:24.704Z,83.42
2019-05-05T20:52:53.653Z,83.38
2019-05-05T20:55:22.296Z,83.76
2019-05-05T20:57:50.791Z,83.04
2019-05-05T21:00:19.471Z,82.40
2019-05-05T21:02:47.961Z,82.63
2019-05-05T21:05:16.486Z,81.94
2019-05-05T21:07:45.215Z,81.74
2019-05-05T21:10:14.493Z,82.12
2019-05-05T21:12:45.415Z,82.26
2019-05-05T21:15:13.698Z,81.81
2019-05-05T21:17:42.230Z,80.52
2019-05-05T21:20:11.062Z,80.35
2019-05-05T21:22:41.256Z,80.50
2019-05-05T21:25:26.487Z,80.65
2019-05-05T21:27:55.089Z,80.29
2019-05-05T21:30:23.896Z,80.36
2019-05-05T21:32:54.715Z,79.85
2019-05-05T21:35:24.046Z,79.62
2019-05-05T21:37:54.358Z,79.82
2019-05-05T21:40:25.020Z,80.14
2019-05-05T21:42:54.285Z,80.03
2019-05-05T21:45:23.012Z,80.21
2019-05-05T21:47:51.511Z,80.42
2019-05-05T21:50:27.738Z,80.68
2019-05-05T21:53:00.647Z,80.93
2019-05-05T21:55:30.846Z,80.99
2019-05-05T21:58:25.279Z,81.00
2019-05-05T22:03:56.686Z,81.34
2019-05-05T22:06:25.311Z,81.02
2019-05-05T22:08:55.529Z,80.80
2019-05-05T22:11:24.398Z,80.15
2019-05-05T22:13:54.000Z,79.66
2019-05-05T22:16:22.757Z,79.18
2019-05-05T22:18:51.567Z,79.59
2019-05-05T22:21:21.709Z,79.68
2019-05-05T22:24:07.572Z,79.11
2019-05-05T22:26:36.134Z,78.99
2019-05-05T22:29:04.897Z,79.18
2019-05-05T22:31:34.626Z,79.47
2019-05-05T22:34:05.127Z,79.28
2019-05-05T22:36:33.877Z,78.73
2019-05-05T22:39:02.503Z,78.52
2019-05-05T22:41:31.081Z,78.75
2019-05-05T22:43:59.629Z,78.40
2019-05-05T22:46:28.145Z,78.56
2019-05-05T22:48:56.834Z,78.99
2019-05-05T22:51:25.403Z,79.24
2019-05-05T22:53:54.751Z,79.01
2019-05-05T22:56:24.125Z,79.15
2019-05-05T22:58:54.590Z,78.79
2019-05-05T23:01:24.136Z,78.72
2019-05-05T23:04:14.384Z,78.64
2019-05-05T23:07:03.804Z,77.72
2019-05-05T23:09:35.277Z,77.72
2019-05-05T23:12:04.293Z,78.39
2019-05-05T23:14:34.224Z,78.88
2019-05-05T23:17:05.000Z,79.17
2019-05-05T23:19:38.341Z,79.84
2019-05-05T23:22:11.030Z,80.15
2019-05-05T23:24:41.220Z,80.09
2019-05-05T23:27:14.544Z,78.27
2019-05-05T23:29:44.608Z,77.49
2019-05-05T23:32:15.403Z,77.82
2019-05-05T23:34:44.543Z,78.10
2019-05-05T23:37:13.726Z,78.26
2019-05-05T23:39:42.276Z,75.78
2019-05-05T23:42:10.787Z,74.49
2019-05-05T23:44:39.273Z,75.85
2019-05-05T23:47:07.766Z,77.20
2019-05-05T23:49:36.263Z,74.80
2019-05-05T23:52:04.841Z,75.06
2019-05-05T23:54:34.108Z,75.93
2019-05-05T23:57:04.670Z,73.97
2019-05-05T23:59:32.913Z,73.42
